createdAt,value
2023-07-25T00:01:46.384Z,14.05
2023-07-25T00:04:13.905Z,13.63
2023-07-25T00:06:41.547Z,13.45
2023-07-25T00:09:08.939Z,13.15
2023-07-25T00:11:36.644Z,12.68
2023-07-25T00:14:03.962Z,13.80
2023-07-25T00:16:31.599Z,13.95
2023-07-25T00:18:58.969Z,12.45
2023-07-25T00:21:26.636Z,13.23
2023-07-25T00:23:54.474Z,13.90
2023-07-25T00:26:22.123Z,12.93
2023-07-25T00:28:49.427Z,13.23
2023-07-25T00:31:17.147Z,13.80
2023-07-25T00:33:44.953Z,12.55
2023-07-25T00:36:12.593Z,12.52
2023-07-25T00:38:39.975Z,11.98
2023-07-25T00:41:07.613Z,13.38
2023-07-25T00:43:35.132Z,13.20
2023-07-25T00:46:02.882Z,11.60
2023-07-25T00:48:31.617Z,12.77
2023-07-25T00:50:59.077Z,12.93
2023-07-25T00:53:27.989Z,11.80
2023-07-25T00:55:55.349Z,13.52
2023-07-25T00:58:23.092Z,12.63
2023-07-25T01:00:50.671Z,13.23
2023-07-25T01:03:18.933Z,12.93
2023-07-25T01:05:50.469Z,12.82
2023-07-25T01:08:18.175Z,13.00
2023-07-25T01:10:45.525Z,13.93
2023-07-25T01:13:13.198Z,14.15
2023-07-25T01:15:41.478Z,12.77
2023-07-25T01:18:10.222Z,13.60
2023-07-25T01:20:39.126Z,16.25
2023-07-25T01:23:08.066Z,15.02
2023-07-25T01:25:36.255Z,15.60
2023-07-25T01:28:04.005Z,16.13
2023-07-25T01:30:32.179Z,15.98
2023-07-25T01:33:00.314Z,15.90
2023-07-25T01:35:28.556Z,15.52
2023-07-25T01:37:56.287Z,16.65
2023-07-25T01:40:24.213Z,15.90
2023-07-25T01:43:10.481Z,15.98
2023-07-25T01:45:37.992Z,16.98
2023-07-25T01:48:05.924Z,16.27
2023-07-25T01:50:33.511Z,15.15
2023-07-25T01:53:01.240Z,15.98
2023-07-25T01:55:28.578Z,15.70
2023-07-25T01:57:56.409Z,14.43
2023-07-25T02:00:23.996Z,13.93
2023-07-25T02:02:52.414Z,13.80
2023-07-25T02:05:19.770Z,15.50
2023-07-25T02:07:47.478Z,15.63
2023-07-25T02:10:15.717Z,15.25
2023-07-25T02:12:43.367Z,15.23
2023-07-25T02:15:11.217Z,14.35
2023-07-25T02:17:38.962Z,15.23
2023-07-25T02:20:09.108Z,15.60
2023-07-25T02:22:36.941Z,14.15
2023-07-25T02:25:04.562Z,14.73
2023-07-25T02:27:32.232Z,14.55
2023-07-25T02:29:59.548Z,14.52
2023-07-25T02:32:27.318Z,14.57
2023-07-25T02:34:54.819Z,13.93
2023-07-25T02:37:22.534Z,14.52
2023-07-25T02:39:49.959Z,14.32
2023-07-25T02:42:17.684Z,13.95
2023-07-25T02:44:45.102Z,13.95
2023-07-25T02:47:12.732Z,13.95
2023-07-25T02:49:40.070Z,14.30
2023-07-25T02:52:08.421Z,13.57
2023-07-25T02:54:35.857Z,14.77
2023-07-25T02:57:03.695Z,13.88
2023-07-25T02:59:31.130Z,14.68
2023-07-25T03:01:58.921Z,14.60
2023-07-25T03:04:26.382Z,13.48
2023-07-25T03:06:53.997Z,16.05
2023-07-25T03:09:21.309Z,14.48
2023-07-25T03:11:49.033Z,13.25
2023-07-25T03:14:16.497Z,14.10
2023-07-25T03:16:44.273Z,14.55
2023-07-25T03:19:11.638Z,13.60
2023-07-25T03:21:39.756Z,14.18
2023-07-25T03:24:07.258Z,13.77
2023-07-25T03:26:34.948Z,15.55
2023-07-25T03:29:02.399Z,14.77
2023-07-25T03:31:30.324Z,15.07
2023-07-25T03:33:57.975Z,17.00
2023-07-25T03:36:26.420Z,14.18
2023-07-25T03:38:53.707Z,14.25
2023-07-25T03:41:21.629Z,14.85
2023-07-25T03:43:49.385Z,15.45
2023-07-25T03:46:17.076Z,15.80
2023-07-25T03:48:44.488Z,16.45
2023-07-25T03:51:12.168Z,14.73
2023-07-25T03:53:39.481Z,16.27
2023-07-25T03:56:08.604Z,17.77
2023-07-25T03:58:35.971Z,17.05
2023-07-25T04:01:03.911Z,17.88
2023-07-25T04:03:31.595Z,16.17
2023-07-25T04:05:59.546Z,17.33
2023-07-25T04:08:26.880Z,17.73
2023-07-25T04:10:54.498Z,18.02
2023-07-25T04:13:21.976Z,16.55
2023-07-25T04:15:49.605Z,17.15
2023-07-25T04:18:16.996Z,17.73
2023-07-25T04:20:44.848Z,17.38
2023-07-25T04:23:12.376Z,17.45
2023-07-25T04:25:40.149Z,17.92
2023-07-25T04:28:08.196Z,17.60
2023-07-25T04:30:35.849Z,17.05
2023-07-25T04:33:03.145Z,18.70
2023-07-25T04:35:30.926Z,17.13
2023-07-25T04:37:58.180Z,17.05
2023-07-25T04:40:26.955Z,16.52
2023-07-25T04:42:54.817Z,18.13
2023-07-25T04:45:22.510Z,17.85
2023-07-25T04:47:49.897Z,18.02
2023-07-25T04:50:17.642Z,17.85
2023-07-25T04:52:44.879Z,17.90
2023-07-25T04:55:12.645Z,18.30
2023-07-25T04:57:40.268Z,20.58
2023-07-25T05:00:08.776Z,20.17
2023-07-25T05:02:36.726Z,18.70
2023-07-25T05:05:04.838Z,18.00
2023-07-25T05:07:32.204Z,17.85
2023-07-25T05:09:59.932Z,18.52
2023-07-25T05:12:27.364Z,17.60
2023-07-25T05:14:55.089Z,17.20
2023-07-25T05:17:22.420Z,16.95
2023-07-25T05:19:50.984Z,17.38
2023-07-25T05:22:18.721Z,18.45
2023-07-25T05:24:46.862Z,17.48
2023-07-25T05:27:14.418Z,17.25
2023-07-25T05:29:42.046Z,17.35
2023-07-25T05:32:09.575Z,18.35
2023-07-25T05:34:37.161Z,17.63
2023-07-25T05:37:04.649Z,17.35
2023-07-25T05:39:32.315Z,18.90
2023-07-25T05:41:59.787Z,19.15
2023-07-25T05:44:27.483Z,18.95
2023-07-25T05:46:54.789Z,20.90
2023-07-25T05:49:22.561Z,21.33
2023-07-25T05:51:52.727Z,20.85
2023-07-25T05:54:20.842Z,22.30
2023-07-25T05:56:48.110Z,21.30
2023-07-25T05:59:15.812Z,22.20
2023-07-25T06:01:43.403Z,20.83
2023-07-25T06:04:14.883Z,20.85
2023-07-25T06:06:43.699Z,20.15
2023-07-25T06:09:13.694Z,20.58
2023-07-25T06:11:41.572Z,20.02
2023-07-25T06:14:09.755Z,20.45
2023-07-25T06:16:37.267Z,21.10
2023-07-25T06:19:04.990Z,19.30
2023-07-25T06:21:33.846Z,19.25
2023-07-25T06:24:01.996Z,19.98
2023-07-25T06:26:29.858Z,21.10
2023-07-25T06:28:57.511Z,17.75
2023-07-25T06:31:25.318Z,19.60
2023-07-25T06:33:53.134Z,18.55
2023-07-25T06:36:20.794Z,18.60
2023-07-25T06:38:49.428Z,17.48
2023-07-25T06:41:16.913Z,16.85
2023-07-25T06:43:44.707Z,18.15
2023-07-25T06:46:12.097Z,16.63
2023-07-25T06:48:40.922Z,16.25
2023-07-25T06:51:08.187Z,16.75
2023-07-25T06:53:35.737Z,15.80
2023-07-25T06:56:03.057Z,16.13
2023-07-25T06:58:30.833Z,16.60
2023-07-25T07:00:59.641Z,14.52
2023-07-25T07:03:27.483Z,16.17
2023-07-25T07:05:56.761Z,14.68
2023-07-25T07:08:25.260Z,14.35
2023-07-25T07:10:56.320Z,15.35
2023-07-25T07:13:24.408Z,15.05
2023-07-25T07:15:51.831Z,15.68
2023-07-25T07:18:19.618Z,13.65
2023-07-25T07:20:49.408Z,15.85
2023-07-25T07:23:18.710Z,13.82
2023-07-25T07:25:46.629Z,14.75
2023-07-25T07:28:14.781Z,14.65
2023-07-25T07:30:42.344Z,14.35
2023-07-25T07:33:09.958Z,13.88
2023-07-25T07:35:37.260Z,12.60
2023-07-25T07:38:04.869Z,13.10
2023-07-25T07:40:32.123Z,13.43
2023-07-25T07:42:59.851Z,12.85
2023-07-25T07:45:28.541Z,11.85
2023-07-25T07:47:56.370Z,13.57
2023-07-25T07:50:23.764Z,12.02
2023-07-25T07:52:51.480Z,12.95
2023-07-25T07:55:18.855Z,12.02
2023-07-25T07:57:47.948Z,13.10
2023-07-25T08:00:16.794Z,13.45
2023-07-25T08:02:46.731Z,14.00
2023-07-25T08:05:15.111Z,12.07
2023-07-25T08:07:43.094Z,13.60
2023-07-25T08:10:11.281Z,11.18
2023-07-25T08:12:39.348Z,11.95
2023-07-25T08:15:07.378Z,12.25
2023-07-25T08:17:35.318Z,13.13
2023-07-25T08:20:05.347Z,11.10
2023-07-25T08:22:35.270Z,13.02
2023-07-25T08:25:02.719Z,11.52
2023-07-25T08:27:30.500Z,12.48
2023-07-25T08:29:57.783Z,11.90
2023-07-25T08:32:27.144Z,12.48
2023-07-25T08:34:55.193Z,12.25
2023-07-25T08:37:24.620Z,12.73
2023-07-25T08:39:52.014Z,12.45
2023-07-25T08:42:23.733Z,11.35
2023-07-25T08:44:55.190Z,11.32
2023-07-25T08:47:29.967Z,13.00
2023-07-25T08:49:59.057Z,11.82
2023-07-25T08:52:32.050Z,11.82
2023-07-25T08:54:59.573Z,12.57
2023-07-25T08:57:29.084Z,11.45
2023-07-25T08:59:56.799Z,12.38
2023-07-25T09:02:25.334Z,10.85
2023-07-25T09:04:55.655Z,10.60
2023-07-25T09:07:23.301Z,11.00
2023-07-25T09:09:50.894Z,10.85
2023-07-25T09:12:19.321Z,10.07
2023-07-25T09:14:46.735Z,10.52
2023-07-25T09:17:14.427Z,11.30
2023-07-25T09:19:42.811Z,9.93
2023-07-25T09:22:32.730Z,10.60
2023-07-25T09:25:01.010Z,9.85
2023-07-25T09:27:28.823Z,10.93
2023-07-25T09:29:56.348Z,9.45
2023-07-25T09:32:29.046Z,9.85
2023-07-25T09:35:01.964Z,10.35
2023-07-25T09:37:30.400Z,10.50
2023-07-25T09:39:57.767Z,10.75
2023-07-25T09:42:26.909Z,9.93
2023-07-25T09:44:57.496Z,10.15
2023-07-25T09:47:29.389Z,10.32
2023-07-25T09:49:57.944Z,10.18
2023-07-25T09:52:26.565Z,10.15
2023-07-25T09:54:53.900Z,9.75
2023-07-25T09:57:21.568Z,9.52
2023-07-25T09:59:50.901Z,9.40
2023-07-25T10:02:19.283Z,9.25
2023-07-25T10:04:47.807Z,9.98
2023-07-25T10:07:16.633Z,9.10
2023-07-25T10:09:47.438Z,8.70
2023-07-25T10:12:14.941Z,10.10
2023-07-25T10:14:42.634Z,8.95
2023-07-25T10:17:10.296Z,9.93
2023-07-25T10:19:53.724Z,8.98
2023-07-25T10:22:41.953Z,9.50
2023-07-25T10:25:31.003Z,9.50
2023-07-25T10:28:03.316Z,8.90
2023-07-25T10:30:32.894Z,9.77
2023-07-25T10:33:02.794Z,9.73
2023-07-25T10:35:51.043Z,9.68
2023-07-25T10:38:46.609Z,9.82
2023-07-25T10:41:14.708Z,9.25
2023-07-25T10:43:50.145Z,9.85
2023-07-25T10:46:27.676Z,9.65
2023-07-25T10:49:05.800Z,10.77
2023-07-25T10:51:53.523Z,10.57
2023-07-25T10:54:23.624Z,10.68
2023-07-25T10:57:16.130Z,10.73
2023-07-25T11:00:05.915Z,10.25
2023-07-25T11:02:42.162Z,9.75
2023-07-25T11:05:15.515Z,9.00
2023-07-25T11:07:46.279Z,9.75
2023-07-25T11:10:20.159Z,9.77
2023-07-25T11:12:56.316Z,10.15
2023-07-25T11:15:45.014Z,9.95
2023-07-25T11:18:12.961Z,10.18
2023-07-25T11:20:40.568Z,9.52
2023-07-25T11:23:08.450Z,9.23
2023-07-25T11:25:36.072Z,10.27
2023-07-25T11:28:03.827Z,9.63
2023-07-25T11:30:31.210Z,10.35
2023-07-25T11:32:58.985Z,9.73
2023-07-25T11:35:26.505Z,9.10
2023-07-25T11:38:02.427Z,8.55
2023-07-25T11:40:33.143Z,9.98
2023-07-25T11:43:01.035Z,9.63
2023-07-25T11:45:28.583Z,9.13
2023-07-25T11:47:57.055Z,9.23
2023-07-25T11:50:30.140Z,9.18
2023-07-25T11:53:00.463Z,9.13
2023-07-25T11:55:29.068Z,8.65
2023-07-25T11:57:56.942Z,9.32
2023-07-25T12:00:25.050Z,9.27
2023-07-25T12:02:52.970Z,9.73
2023-07-25T12:05:29.116Z,8.65
2023-07-25T12:08:02.293Z,9.90
2023-07-25T12:10:35.593Z,9.43
2023-07-25T12:13:05.049Z,9.73
2023-07-25T12:15:47.117Z,10.27
2023-07-25T12:18:27.830Z,9.63
2023-07-25T12:21:00.337Z,8.85
2023-07-25T12:23:31.794Z,10.80
2023-07-25T12:26:02.634Z,11.18
2023-07-25T12:28:46.301Z,9.75
2023-07-25T12:31:14.652Z,8.95
2023-07-25T12:33:46.727Z,8.90
2023-07-25T12:36:14.141Z,9.65
2023-07-25T12:38:41.818Z,8.85
2023-07-25T12:41:09.147Z,8.85
2023-07-25T12:43:37.166Z,9.07
2023-07-25T12:46:04.730Z,9.45
2023-07-25T12:48:32.486Z,8.35
2023-07-25T12:51:00.382Z,8.95
2023-07-25T12:54:24.282Z,9.40
2023-07-25T12:57:13.050Z,9.60
2023-07-25T12:59:40.607Z,8.80
2023-07-25T13:02:07.946Z,8.98
2023-07-25T13:04:35.849Z,10.60
2023-07-25T13:07:03.357Z,10.68
2023-07-25T13:09:31.078Z,8.45
2023-07-25T13:11:58.440Z,8.85
2023-07-25T13:14:26.191Z,9.45
2023-07-25T13:16:53.489Z,8.35
2023-07-25T13:19:21.095Z,9.52
2023-07-25T13:21:48.486Z,7.65
2023-07-25T13:24:16.218Z,8.07
2023-07-25T13:26:43.561Z,8.55
2023-07-25T13:29:11.279Z,6.70
2023-07-25T13:31:40.580Z,6.63
2023-07-25T13:34:08.264Z,6.60
2023-07-25T13:36:36.928Z,6.93
2023-07-25T13:39:04.594Z,6.85
2023-07-25T13:41:32.013Z,6.95
2023-07-25T13:43:59.902Z,7.75
2023-07-25T13:46:27.265Z,8.07
2023-07-25T13:48:54.919Z,6.72
2023-07-25T13:51:22.410Z,9.73
2023-07-25T13:53:50.053Z,8.27
2023-07-25T13:56:17.416Z,7.32
2023-07-25T13:58:47.354Z,7.18
2023-07-25T14:01:15.180Z,6.18
2023-07-25T14:03:43.051Z,5.95
2023-07-25T14:06:10.510Z,6.57
2023-07-25T14:08:38.288Z,6.05
2023-07-25T14:11:05.789Z,6.63
2023-07-25T14:13:33.487Z,7.03
2023-07-25T14:16:00.881Z,7.07
2023-07-25T14:18:28.524Z,6.15
2023-07-25T14:21:00.755Z,6.07
2023-07-25T14:23:28.706Z,8.95
2023-07-25T14:25:56.031Z,8.10
2023-07-25T14:28:23.695Z,6.55
2023-07-25T14:30:51.270Z,8.82
2023-07-25T14:33:21.797Z,6.72
2023-07-25T14:35:49.533Z,7.35
2023-07-25T14:38:18.476Z,6.85
2023-07-25T14:40:47.066Z,6.57
2023-07-25T14:43:14.933Z,7.63
2023-07-25T14:45:42.188Z,7.90
2023-07-25T14:48:09.903Z,7.28
2023-07-25T14:50:38.035Z,6.63
2023-07-25T14:53:05.750Z,6.40
2023-07-25T14:55:33.329Z,7.53
2023-07-25T14:58:01.263Z,5.90
2023-07-25T15:00:29.008Z,6.75
2023-07-25T15:02:56.836Z,6.70
2023-07-25T15:05:24.196Z,6.72
2023-07-25T15:07:51.853Z,6.97
2023-07-25T15:10:19.294Z,6.93
2023-07-25T15:12:47.658Z,7.38
2023-07-25T15:15:14.976Z,6.47
2023-07-25T15:17:43.069Z,7.15
2023-07-25T15:20:35.875Z,7.78
2023-07-25T15:23:04.607Z,10.65
2023-07-25T15:25:31.925Z,9.13
2023-07-25T15:27:59.645Z,8.77
2023-07-25T15:30:27.394Z,8.57
2023-07-25T15:32:55.179Z,9.07
2023-07-25T15:35:26.421Z,6.93
2023-07-25T15:37:57.271Z,7.50
2023-07-25T15:40:24.878Z,8.18
2023-07-25T15:42:52.751Z,7.32
2023-07-25T15:45:20.074Z,8.00
2023-07-25T15:47:47.745Z,6.30
2023-07-25T15:50:15.329Z,6.10
2023-07-25T15:52:42.902Z,7.03
2023-07-25T15:55:10.242Z,6.90
2023-07-25T15:57:37.986Z,6.40
2023-07-25T16:00:08.398Z,6.65
2023-07-25T16:02:36.655Z,7.38
2023-07-25T16:05:04.380Z,7.97
2023-07-25T16:07:35.266Z,7.05
2023-07-25T16:10:04.455Z,6.55
2023-07-25T16:12:33.826Z,6.50
2023-07-25T16:15:01.253Z,6.53
2023-07-25T16:17:28.969Z,6.57
2023-07-25T16:19:56.400Z,7.63
2023-07-25T16:22:24.121Z,7.05
2023-07-25T16:24:51.585Z,6.45
2023-07-25T16:27:19.326Z,6.57
2023-07-25T16:29:46.883Z,7.22
2023-07-25T16:32:14.742Z,7.35
2023-07-25T16:34:42.193Z,6.90
2023-07-25T16:37:09.953Z,5.72
2023-07-25T16:39:37.273Z,7.47
2023-07-25T16:42:05.163Z,7.05
2023-07-25T16:44:32.561Z,6.47
2023-07-25T16:47:00.219Z,6.95
2023-07-25T16:49:29.267Z,6.60
2023-07-25T16:51:57.818Z,6.65
2023-07-25T16:54:26.641Z,8.15
2023-07-25T16:56:54.352Z,9.82
2023-07-25T16:59:21.702Z,6.78
2023-07-25T17:01:49.367Z,7.57
2023-07-25T17:04:17.532Z,7.95
2023-07-25T17:06:45.241Z,6.57
2023-07-25T17:09:12.596Z,7.82
2023-07-25T17:11:43.697Z,6.80
2023-07-25T17:14:11.123Z,6.88
2023-07-25T17:16:38.795Z,6.78
2023-07-25T17:19:06.148Z,6.20
2023-07-25T17:21:40.875Z,7.60
2023-07-25T17:24:09.268Z,9.38
2023-07-25T17:26:36.899Z,7.97
2023-07-25T17:29:04.397Z,6.95
2023-07-25T17:31:32.425Z,8.05
2023-07-25T17:34:00.022Z,7.93
2023-07-25T17:36:27.732Z,8.50
2023-07-25T17:38:55.095Z,9.00
2023-07-25T17:41:23.796Z,9.80
2023-07-25T17:43:51.412Z,8.57
2023-07-25T17:46:19.240Z,7.32
2023-07-25T17:48:46.673Z,38.88
2023-07-25T17:51:14.458Z,13.50
2023-07-25T17:53:41.806Z,6.28
2023-07-25T17:56:10.593Z,6.63
2023-07-25T17:58:38.039Z,10.18
2023-07-25T18:01:05.935Z,7.95
2023-07-25T18:03:33.680Z,6.63
2023-07-25T18:06:01.428Z,7.93
2023-07-25T18:08:28.867Z,7.93
2023-07-25T18:10:56.658Z,7.20
2023-07-25T18:13:25.031Z,6.90
2023-07-25T18:15:52.747Z,6.43
2023-07-25T18:18:20.348Z,7.65
2023-07-25T18:20:48.669Z,7.22
2023-07-25T18:23:20.114Z,7.65
2023-07-25T18:25:48.355Z,8.07
2023-07-25T18:28:18.639Z,7.30
2023-07-25T18:30:46.350Z,8.75
2023-07-25T18:33:15.417Z,7.93
2023-07-25T18:35:43.263Z,7.15
2023-07-25T18:38:10.718Z,6.88
2023-07-25T18:40:39.007Z,7.03
2023-07-25T18:43:06.985Z,6.82
2023-07-25T18:45:34.638Z,8.48
2023-07-25T18:48:02.049Z,8.43
2023-07-25T18:50:30.944Z,9.68
2023-07-25T18:52:58.531Z,10.38
2023-07-25T18:55:26.300Z,7.32
2023-07-25T18:57:54.385Z,7.97
2023-07-25T19:00:22.395Z,7.35
2023-07-25T19:02:51.263Z,7.50
2023-07-25T19:05:18.956Z,6.80
2023-07-25T19:07:46.508Z,6.78
2023-07-25T19:10:18.831Z,7.93
2023-07-25T19:12:46.567Z,6.32
2023-07-25T19:15:14.445Z,6.53
2023-07-25T19:17:41.813Z,6.70
2023-07-25T19:20:11.069Z,7.13
2023-07-25T19:22:38.659Z,7.68
2023-07-25T19:25:06.745Z,6.55
2023-07-25T19:27:34.788Z,7.30
2023-07-25T19:30:02.798Z,7.13
2023-07-25T19:32:30.225Z,6.85
2023-07-25T19:34:58.029Z,13.20
2023-07-25T19:37:25.422Z,8.77
2023-07-25T19:39:53.273Z,6.50
2023-07-25T19:42:20.671Z,7.90
2023-07-25T19:44:49.476Z,6.72
2023-07-25T19:47:16.757Z,6.25
2023-07-25T19:49:44.455Z,5.95
2023-07-25T19:52:11.816Z,6.40
2023-07-25T19:54:39.556Z,6.05
2023-07-25T19:57:07.065Z,6.20
2023-07-25T19:59:34.848Z,8.57
2023-07-25T20:02:02.459Z,8.70
2023-07-25T20:04:30.304Z,7.72
2023-07-25T20:06:57.715Z,5.90
2023-07-25T20:09:25.379Z,6.80
2023-07-25T20:11:52.682Z,6.07
2023-07-25T20:14:21.122Z,8.02
2023-07-25T20:16:48.492Z,6.93
2023-07-25T20:19:18.588Z,8.80
2023-07-25T20:21:49.640Z,6.30
2023-07-25T20:24:17.909Z,7.03
2023-07-25T20:26:45.324Z,7.45
2023-07-25T20:29:12.976Z,6.82
2023-07-25T20:31:40.318Z,7.90
2023-07-25T20:34:08.124Z,7.35
2023-07-25T20:36:35.667Z,7.97
2023-07-25T20:39:03.585Z,8.20
2023-07-25T20:41:31.484Z,8.82
2023-07-25T20:44:01.630Z,8.13
2023-07-25T20:46:29.290Z,6.07
2023-07-25T20:48:57.117Z,7.13
2023-07-25T20:51:24.546Z,7.15
2023-07-25T20:53:52.959Z,6.55
2023-07-25T20:56:20.541Z,8.27
2023-07-25T20:58:48.357Z,8.32
2023-07-25T21:01:16.233Z,7.38
2023-07-25T21:03:44.685Z,7.43
2023-07-25T21:06:12.079Z,10.02
2023-07-25T21:08:39.823Z,7.25
2023-07-25T21:11:09.311Z,7.53
2023-07-25T21:13:38.221Z,6.18
2023-07-25T21:16:05.910Z,7.28
2023-07-25T21:18:34.862Z,8.52
2023-07-25T21:21:07.418Z,7.60
2023-07-25T21:23:37.438Z,6.90
2023-07-25T21:26:05.304Z,7.47
2023-07-25T21:28:34.642Z,7.50
2023-07-25T21:31:02.589Z,6.57
2023-07-25T21:33:30.269Z,6.40
2023-07-25T21:36:11.911Z,6.53
2023-07-25T21:38:40.686Z,7.05
2023-07-25T21:41:13.477Z,7.07
2023-07-25T21:43:43.132Z,6.65
2023-07-25T21:46:10.993Z,8.18
2023-07-25T21:48:38.897Z,8.07
2023-07-25T21:51:06.529Z,7.80
2023-07-25T21:53:34.777Z,7.07
2023-07-25T21:56:02.084Z,7.30
2023-07-25T21:58:29.839Z,7.00
2023-07-25T22:00:59.264Z,6.60
2023-07-25T22:03:31.664Z,7.35
2023-07-25T22:06:00.823Z,7.15
2023-07-25T22:08:28.542Z,6.32
2023-07-25T22:10:56.587Z,8.15
2023-07-25T22:13:25.459Z,6.57
2023-07-25T22:15:52.983Z,6.90
2023-07-25T22:18:21.009Z,8.65
2023-07-25T22:20:52.471Z,8.65
2023-07-25T22:23:22.628Z,9.80
2023-07-25T22:25:50.167Z,8.57
2023-07-25T22:28:18.060Z,7.85
2023-07-25T22:30:45.382Z,7.85
2023-07-25T22:33:14.136Z,7.97
2023-07-25T22:35:41.454Z,7.40
2023-07-25T22:38:09.163Z,7.75
2023-07-25T22:40:36.568Z,8.98
2023-07-25T22:43:04.534Z,7.55
2023-07-25T22:45:32.192Z,9.80
2023-07-25T22:48:00.006Z,9.25
2023-07-25T22:50:27.332Z,8.70
2023-07-25T22:52:55.199Z,7.30
2023-07-25T22:55:22.608Z,8.65
2023-07-25T22:57:50.363Z,7.15
2023-07-25T23:00:18.209Z,7.03
2023-07-25T23:02:46.184Z,7.68
2023-07-25T23:05:14.052Z,7.72
2023-07-25T23:07:41.939Z,7.22
2023-07-25T23:10:09.819Z,7.32
2023-07-25T23:12:37.601Z,8.20
2023-07-25T23:15:05.658Z,6.57
2023-07-25T23:17:33.577Z,7.78
2023-07-25T23:20:01.071Z,7.00
2023-07-25T23:22:28.867Z,6.72
2023-07-25T23:24:57.453Z,6.20
2023-07-25T23:27:25.419Z,6.78
2023-07-25T23:29:52.837Z,6.85
2023-07-25T23:32:20.574Z,6.03
2023-07-25T23:34:50.500Z,6.70
2023-07-25T23:37:18.493Z,5.72
2023-07-25T23:39:46.111Z,6.75
2023-07-25T23:42:15.203Z,5.30
2023-07-25T23:44:44.196Z,5.72
2023-07-25T23:47:13.987Z,6.25
2023-07-25T23:49:41.481Z,5.60
2023-07-25T23:52:09.162Z,5.10
2023-07-25T23:54:36.546Z,5.50
2023-07-25T23:57:04.762Z,5.00
2023-07-25T23:59:32.345Z,5.75
